Time;durP1;ratioP1;P1;durP2;ratioP2;P2;SDS_P1;SDS_P2;PMS_P1;PMS_P2;Temp;Humidity;BMP_temperature;BMP_pressure;BME280_temperature;BME280_humidity;BME280_pressure;Samples;Min_cycle;Max_cycle;Signal;HPM_P1;HPM_P2
2023/11/11 00:00:36;;;;;;;8.60;6.45;;;10.40;67.70;12.20;99739.00;;;;5007827;28;20253;-77
2023/11/11 00:03:04;;;;;;;7.32;6.63;;;10.40;67.70;12.20;99740.00;;;;5008834;28;20232;-77
2023/11/11 00:05:31;;;;;;;7.82;6.88;;;10.40;67.80;12.20;99739.00;;;;5009653;28;20259;-76
2023/11/11 00:07:59;;;;;;;7.80;6.03;;;10.30;67.80;12.10;99742.00;;;;5009905;28;20193;-76
2023/11/11 00:10:26;;;;;;;7.72;6.45;;;10.30;67.80;12.10;99735.00;;;;5007294;28;20223;-77
2023/11/11 00:12:53;;;;;;;6.63;5.93;;;10.30;67.80;12.10;99745.00;;;;5013357;28;20232;-76
2023/11/11 00:15:21;;;;;;;6.55;5.60;;;10.20;68.50;12.00;99746.00;;;;5008269;28;20275;-77
2023/11/11 00:17:49;;;;;;;5.90;5.28;;;10.20;67.80;12.00;99749.00;;;;5008424;28;20228;-77
2023/11/11 00:20:16;;;;;;;8.00;5.80;;;10.20;67.80;12.00;99759.00;;;;5007530;28;20196;-77
2023/11/11 00:22:44;;;;;;;5.80;5.20;;;10.10;67.80;12.00;99754.00;;;;5005291;28;20674;-77
2023/11/11 00:25:16;;;;;;;6.43;5.82;;;10.10;67.90;12.00;99757.00;;;;5008523;28;20213;-77
2023/11/11 00:27:44;;;;;;;6.47;5.50;;;10.10;68.00;12.00;99763.00;;;;5001904;28;20552;-76
2023/11/11 00:30:13;;;;;;;6.63;5.63;;;10.10;68.10;11.90;99768.00;;;;5004800;28;20220;-77
2023/11/11 00:32:40;;;;;;;6.45;5.55;;;10.00;68.00;11.90;99765.00;;;;5008443;28;20618;-77
2023/11/11 00:35:10;;;;;;;6.18;5.13;;;10.00;68.10;11.90;99757.00;;;;5001445;28;20288;-77
2023/11/11 00:37:37;;;;;;;7.30;6.03;;;10.00;68.10;11.90;99757.00;;;;5007837;28;20263;-77
2023/11/11 00:40:05;;;;;;;5.65;5.05;;;10.00;68.00;11.90;99759.00;;;;5006993;28;20807;-77
2023/11/11 00:42:32;;;;;;;6.82;5.20;;;10.00;67.90;11.80;99764.00;;;;5001818;28;20189;-77
2023/11/11 00:44:59;;;;;;;5.70;5.10;;;10.00;67.90;11.80;99771.00;;;;5005165;28;20196;-76
2023/11/11 00:47:27;;;;;;;6.93;5.25;;;10.00;67.90;11.80;99766.00;;;;5008526;28;20228;-76
2023/11/11 00:49:54;;;;;;;6.82;6.00;;;9.90;67.80;11.80;99773.00;;;;5012629;28;20231;-77
2023/11/11 00:52:22;;;;;;;5.93;5.32;;;9.90;67.80;11.80;99769.00;;;;5005195;28;20548;-77
2023/11/11 00:54:49;;;;;;;6.78;5.68;;;9.90;67.90;11.80;99769.00;;;;5005802;28;20577;-76
2023/11/11 00:57:18;;;;;;;7.65;5.80;;;9.90;68.00;11.80;99782.00;;;;5008855;28;20812;-77
2023/11/11 00:59:46;;;;;;;10.63;6.18;;;9.90;68.30;11.80;99780.00;;;;5004702;28;20259;-77
2023/11/11 01:02:13;;;;;;;6.13;5.53;;;9.80;68.00;11.80;99786.00;;;;5003843;28;20654;-77
2023/11/11 01:04:40;;;;;;;5.63;5.13;;;9.90;68.10;11.70;99790.00;;;;5000656;28;20219;-77
2023/11/11 01:07:07;;;;;;;10.32;5.75;;;9.80;68.10;11.70;99793.00;;;;5004771;28;20211;-76
2023/11/11 01:09:35;;;;;;;6.05;5.18;;;9.80;68.00;11.70;99796.00;;;;5004257;28;21080;-76
2023/11/11 01:12:05;;;;;;;6.80;5.85;;;9.80;68.10;11.70;99803.00;;;;4998429;28;20196;-77
2023/11/11 01:14:34;;;;;;;5.85;5.05;;;9.80;68.10;11.70;99812.00;;;;4997514;28;20217;-76
2023/11/11 01:17:02;;;;;;;5.82;5.20;;;9.80;68.10;11.70;99809.00;;;;5002579;28;20577;-77
2023/11/11 01:19:30;;;;;;;5.60;5.10;;;9.80;68.00;11.70;99812.00;;;;5004919;28;20200;-76
2023/11/11 01:21:57;;;;;;;6.30;4.78;;;9.80;68.00;11.60;99805.00;;;;5007457;28;20363;-76
2023/11/11 01:24:24;;;;;;;5.75;5.05;;;9.80;68.00;11.60;99810.00;;;;5007909;28;20630;-77
2023/11/11 01:26:52;;;;;;;5.50;4.47;;;9.80;68.10;11.60;99806.00;;;;5002805;28;20762;-77
2023/11/11 01:29:21;;;;;;;6.28;5.55;;;9.70;68.00;11.60;99809.00;;;;5006957;28;20635;-77
2023/11/11 01:31:48;;;;;;;5.97;5.10;;;9.70;68.10;11.60;99820.00;;;;5006401;28;20204;-77
2023/11/11 01:34:15;;;;;;;6.43;5.00;;;9.70;68.20;11.60;99822.00;;;;5008185;28;20667;-77
2023/11/11 01:36:42;;;;;;;5.47;4.85;;;9.70;68.20;11.60;99817.00;;;;5006672;28;20285;-77
2023/11/11 01:39:09;;;;;;;4.70;4.20;;;9.70;68.30;11.60;99819.00;;;;5007033;28;20197;-76
2023/11/11 01:41:36;;;;;;;5.88;4.50;;;9.70;68.30;11.60;99826.00;;;;5007074;28;20197;-76
2023/11/11 01:44:05;;;;;;;5.22;4.10;;;9.70;68.40;11.60;99832.00;;;;5006693;28;20204;-77
2023/11/11 01:46:32;;;;;;;5.78;3.65;;;9.70;68.40;11.60;99829.00;;;;5006190;28;20231;-76
2023/11/11 01:49:00;;;;;;;5.03;4.25;;;9.70;68.40;11.60;99827.00;;;;5007212;28;20220;-77
2023/11/11 01:51:29;;;;;;;4.80;3.30;;;9.70;68.50;11.60;99834.00;;;;5004442;28;20197;-77
2023/11/11 01:53:57;;;;;;;4.10;3.53;;;9.70;68.50;11.60;99835.00;;;;5007578;28;20199;-76
2023/11/11 01:56:25;;;;;;;4.45;3.53;;;9.80;68.60;11.60;99844.00;;;;5006741;28;20662;-77
2023/11/11 01:58:53;;;;;;;4.28;3.55;;;9.80;69.30;11.60;99839.00;;;;5007809;28;20201;-77
2023/11/11 02:01:23;;;;;;;4.20;2.95;;;9.80;68.70;11.70;99842.00;;;;5002317;28;21722;-77
2023/11/11 02:03:50;;;;;;;4.88;2.35;;;9.80;68.80;11.70;99845.00;;;;5006652;28;20665;-77
2023/11/11 02:06:18;;;;;;;1.98;1.73;;;9.80;68.90;11.70;99846.00;;;;5006325;28;20721;-77
2023/11/11 02:08:45;;;;;;;1.83;1.38;;;9.80;69.00;11.80;99846.00;;;;4999463;28;20220;-77
2023/11/11 02:11:12;;;;;;;3.58;1.55;;;9.90;69.20;11.80;99836.00;;;;5014068;28;20234;-77
2023/11/11 02:13:39;;;;;;;2.90;1.20;;;9.90;69.20;11.80;99837.00;;;;5006545;28;20951;-77
2023/11/11 02:16:09;;;;;;;3.17;1.17;;;10.00;69.30;11.80;99831.00;;;;5006861;28;20200;-77
2023/11/11 02:18:37;;;;;;;1.23;0.80;;;10.00;69.30;11.80;99832.00;;;;5006091;28;20201;-77
2023/11/11 02:21:05;;;;;;;1.77;0.77;;;10.00;69.20;11.90;99831.00;;;;5005755;28;20200;-77
2023/11/11 02:23:35;;;;;;;2.35;0.80;;;10.00;69.10;11.80;99826.00;;;;5003805;28;20197;-77
2023/11/11 02:26:04;;;;;;;2.17;0.98;;;10.00;69.00;11.80;99829.00;;;;5002444;28;20201;-77
2023/11/11 02:28:32;;;;;;;1.90;1.10;;;10.00;68.80;11.80;99831.00;;;;5007329;28;20216;-77
2023/11/11 02:30:59;;;;;;;2.47;1.20;;;10.10;68.80;11.90;99831.00;;;;5005295;28;20193;-77
2023/11/11 02:33:26;;;;;;;2.90;1.10;;;10.10;69.30;11.80;99836.00;;;;5005244;28;20203;-77
2023/11/11 02:35:54;;;;;;;5.32;1.55;;;10.00;68.50;11.80;99832.00;;;;5005263;28;20200;-77
2023/11/11 02:38:21;;;;;;;2.65;1.55;;;10.00;68.40;11.80;99827.00;;;;5006309;28;20602;-77
2023/11/11 02:40:50;;;;;;;3.47;1.67;;;10.00;68.20;11.80;99825.00;;;;5005754;28;20197;-77
2023/11/11 02:43:17;;;;;;;5.25;1.50;;;10.00;68.20;11.80;99836.00;;;;5006352;28;20224;-77
2023/11/11 02:45:44;;;;;;;1.90;1.60;;;9.90;68.00;11.70;99842.00;;;;5005497;28;20272;-78
2023/11/11 02:48:11;;;;;;;7.03;1.75;;;9.90;68.00;11.70;99840.00;;;;5006471;28;20193;-77
2023/11/11 02:50:38;;;;;;;2.83;1.52;;;9.90;68.00;11.70;99844.00;;;;5006002;28;20223;-77
2023/11/11 02:53:05;;;;;;;2.35;1.70;;;9.80;67.90;11.60;99843.00;;;;5005247;28;20199;-78
2023/11/11 02:55:32;;;;;;;2.92;1.55;;;9.80;67.90;11.60;99847.00;;;;5005940;28;20681;-77
2023/11/11 02:58:01;;;;;;;2.45;1.67;;;9.80;67.90;11.60;99855.00;;;;5005574;28;20551;-78
2023/11/11 03:00:28;;;;;;;2.28;1.83;;;9.70;67.80;11.60;99854.00;;;;5006036;28;20215;-78
2023/11/11 03:02:55;;;;;;;2.10;1.80;;;9.70;67.80;11.50;99854.00;;;;5001932;28;20202;-78
2023/11/11 03:05:23;;;;;;;3.53;1.70;;;9.70;67.90;11.50;99869.00;;;;5004192;28;20225;-78
2023/11/11 03:07:50;;;;;;;2.30;1.85;;;9.60;67.80;11.50;99874.00;;;;5006223;28;20197;-78
2023/11/11 03:10:17;;;;;;;2.25;1.80;;;9.60;67.90;11.50;99884.00;;;;5005743;28;20320;-77
2023/11/11 03:12:45;;;;;;;4.20;2.05;;;9.60;67.90;11.50;99874.00;;;;5006361;28;20220;-77
2023/11/11 03:15:13;;;;;;;3.60;1.50;;;9.60;68.00;11.50;99891.00;;;;5007565;28;20205;-77
2023/11/11 03:17:40;;;;;;;1.85;1.15;;;9.60;68.90;11.50;99896.00;;;;5009155;28;20296;-78
2023/11/11 03:20:09;;;;;;;1.52;1.15;;;9.60;68.50;11.50;99915.00;;;;5009739;28;20687;-76
2023/11/11 03:22:37;;;;;;;3.55;1.30;;;9.60;68.60;11.60;99925.00;;;;5009475;28;20204;-76
2023/11/11 03:25:05;;;;;;;1.65;1.35;;;9.60;68.70;11.60;99934.00;;;;5009963;28;20212;-76
2023/11/11 03:27:33;;;;;;;2.75;0.63;;;9.70;69.00;11.60;99944.00;;;;5007489;28;20675;-76
2023/11/11 03:30:00;;;;;;;1.58;0.85;;;9.70;69.10;11.60;99934.00;;;;5001356;28;20312;-76
2023/11/11 03:32:29;;;;;;;1.50;0.70;;;9.70;69.20;11.70;99934.00;;;;5008309;28;20205;-77
2023/11/11 03:34:56;;;;;;;3.63;0.40;;;9.80;69.30;11.70;99925.00;;;;5007641;28;20201;-77
2023/11/11 03:37:24;;;;;;;1.35;0.57;;;9.90;69.50;11.80;99917.00;;;;5012111;28;20568;-77
2023/11/11 03:39:51;;;;;;;6.78;0.52;;;9.90;69.60;11.80;99913.00;;;;5010067;28;20284;-77
2023/11/11 03:42:18;;;;;;;0.75;0.43;;;9.90;69.60;11.80;99922.00;;;;5001666;28;20205;-77
2023/11/11 03:44:45;;;;;;;0.70;0.30;;;10.00;69.70;11.80;99918.00;;;;5009274;28;20572;-77
2023/11/11 03:47:12;;;;;;;1.23;0.40;;;10.00;69.60;11.90;99918.00;;;;5009384;28;20235;-77
2023/11/11 03:49:41;;;;;;;1.65;0.40;;;10.10;69.70;11.90;99921.00;;;;5009355;28;20221;-77
2023/11/11 03:52:09;;;;;;;4.15;0.60;;;10.10;69.70;12.00;99918.00;;;;5008544;28;20561;-77
2023/11/11 03:54:36;;;;;;;1.20;0.90;;;10.10;69.60;12.00;99930.00;;;;5005312;28;20277;-77
2023/11/11 03:57:04;;;;;;;0.47;0.40;;;10.20;69.70;12.10;99947.00;;;;5008651;28;20200;-77
2023/11/11 03:59:34;;;;;;;1.30;0.30;;;10.20;69.60;12.10;99949.00;;;;5008833;28;21229;-78
2023/11/11 04:02:01;;;;;;;1.80;0.55;;;10.30;69.70;12.20;99965.00;;;;5008162;28;20295;-78
2023/11/11 04:04:28;;;;;;;0.88;0.30;;;10.30;69.60;12.20;99968.00;;;;5009387;28;20197;-78
2023/11/11 04:06:57;;;;;;;1.95;0.50;;;10.30;69.60;12.20;99973.00;;;;5008181;28;20205;-78
2023/11/11 04:09:24;;;;;;;1.15;0.73;;;10.40;69.70;12.20;99974.00;;;;5010009;28;20577;-78
2023/11/11 04:11:52;;;;;;;1.20;0.43;;;10.40;69.70;12.20;99968.00;;;;5007520;28;20574;-78
2023/11/11 04:14:19;;;;;;;3.38;0.35;;;10.50;69.70;12.20;99961.00;;;;5009116;28;20204;-77
2023/11/11 04:16:46;;;;;;;0.50;0.28;;;10.40;69.60;12.20;99957.00;;;;5007856;28;20743;-78
2023/11/11 04:19:15;;;;;;;5.60;0.45;;;10.50;69.50;12.30;99967.00;;;;5009714;28;20533;-78
2023/11/11 04:21:48;;;;;;;0.52;0.35;;;10.50;69.50;12.20;99961.00;;;;5008543;28;20248;-78
2023/11/11 04:24:19;;;;;;;1.50;0.20;;;10.60;69.60;12.30;99952.00;;;;5008195;28;20659;-78
2023/11/11 04:26:46;;;;;;;1.42;0.20;;;10.60;69.60;12.30;99962.00;;;;5007024;28;20570;-77
2023/11/11 04:29:14;;;;;;;0.68;0.20;;;10.60;69.50;12.30;99966.00;;;;5005618;28;20213;-78
2023/11/11 04:31:41;;;;;;;0.82;0.28;;;10.60;69.50;12.40;99986.00;;;;5007458;28;20193;-78
2023/11/11 04:34:09;;;;;;;1.30;0.32;;;10.70;69.50;12.40;99981.00;;;;5003044;28;20560;-77
2023/11/11 04:36:36;;;;;;;0.82;0.43;;;10.70;69.50;12.40;99980.00;;;;5009482;28;20192;-77
2023/11/11 04:39:07;;;;;;;0.75;0.20;;;10.70;69.50;12.40;99981.00;;;;5006949;28;20782;-77
2023/11/11 04:41:36;;;;;;;1.80;0.30;;;10.70;69.50;12.40;99984.00;;;;5010075;28;20211;-77
2023/11/11 04:44:03;;;;;;;2.65;0.50;;;10.70;69.40;12.40;99980.00;;;;5012365;28;20216;-78
2023/11/11 04:46:31;;;;;;;0.60;0.40;;;10.80;69.40;12.40;99981.00;;;;5009382;28;20228;-77
2023/11/11 04:48:58;;;;;;;0.40;0.20;;;10.80;69.40;12.40;99979.00;;;;5007006;28;20204;-77
2023/11/11 04:51:25;;;;;;;1.40;0.20;;;10.80;69.30;12.40;99985.00;;;;5001844;28;20221;-77
2023/11/11 04:53:52;;;;;;;2.17;0.50;;;10.80;69.30;12.50;99984.00;;;;5008198;28;20203;-77
2023/11/11 04:56:19;;;;;;;1.48;0.20;;;10.80;69.20;12.50;99980.00;;;;5000169;28;20201;-77
2023/11/11 04:58:48;;;;;;;0.60;0.30;;;10.90;69.30;12.50;99988.00;;;;5007966;28;20345;-77
2023/11/11 05:01:15;;;;;;;1.60;0.30;;;10.90;69.30;12.60;99997.00;;;;5008826;28;20201;-78
2023/11/11 05:03:42;;;;;;;1.88;0.57;;;10.90;69.30;12.60;100010.00;;;;5008470;28;20248;-77
2023/11/11 05:06:09;;;;;;;0.90;0.50;;;10.90;69.30;12.60;100021.00;;;;5007211;28;20689;-77
2023/11/11 05:08:36;;;;;;;0.73;0.47;;;10.90;69.30;12.60;100007.00;;;;5006454;28;20920;-77
2023/11/11 05:11:03;;;;;;;0.30;0.22;;;11.00;69.20;12.60;100022.00;;;;5008807;28;20224;-78
2023/11/11 05:13:33;;;;;;;0.38;0.20;;;11.00;69.10;12.60;100012.00;;;;5008302;28;20208;-78
2023/11/11 05:16:10;;;;;;;0.80;0.20;;;11.00;69.00;12.60;100008.00;;;;5007040;28;20729;-77
2023/11/11 05:18:37;;;;;;;1.48;0.20;;;11.00;69.00;12.60;99999.00;;;;5007900;28;20200;-77
2023/11/11 05:21:05;;;;;;;0.40;0.10;;;11.00;68.90;12.60;100015.00;;;;5004603;28;20207;-78
2023/11/11 05:23:32;;;;;;;2.05;0.20;;;11.00;68.90;12.60;100008.00;;;;5001096;28;20221;-77
2023/11/11 05:25:59;;;;;;;0.75;0.30;;;11.00;68.90;12.60;100008.00;;;;5001162;28;20189;-77
2023/11/11 05:28:26;;;;;;;2.00;0.30;;;11.00;68.90;12.70;100017.00;;;;5015610;28;20632;-77
2023/11/11 05:30:53;;;;;;;1.50;0.22;;;11.00;68.80;12.70;100028.00;;;;5008578;28;20248;-78
2023/11/11 05:33:21;;;;;;;1.20;0.30;;;11.00;68.80;12.70;100027.00;;;;5010875;28;20634;-78
2023/11/11 05:35:49;;;;;;;2.80;0.30;;;11.00;68.80;12.70;100032.00;;;;5016468;28;20348;-78
2023/11/11 05:38:16;;;;;;;0.82;0.22;;;11.00;68.80;12.70;100038.00;;;;5004761;28;20320;-77
2023/11/11 05:40:43;;;;;;;0.63;0.20;;;11.00;68.80;12.80;100044.00;;;;5019424;28;20280;-77
2023/11/11 05:43:10;;;;;;;0.55;0.22;;;11.00;68.90;12.80;100033.00;;;;5021152;28;20208;-76
2023/11/11 05:45:37;;;;;;;1.35;0.15;;;11.00;68.90;12.80;100038.00;;;;5015070;28;20193;-77
2023/11/11 05:48:04;;;;;;;1.30;0.45;;;11.10;68.90;12.80;100038.00;;;;5014477;28;20314;-75
2023/11/11 05:50:33;;;;;;;1.05;0.40;;;11.00;68.80;12.80;100034.00;;;;5016766;28;20216;-76
2023/11/11 05:53:00;;;;;;;1.13;0.30;;;11.00;68.80;12.80;100042.00;;;;5012696;28;20589;-76
2023/11/11 05:55:28;;;;;;;0.70;0.22;;;11.00;68.70;12.80;100037.00;;;;5013346;28;20193;-76
2023/11/11 05:57:55;;;;;;;1.55;0.30;;;11.00;68.60;12.80;100047.00;;;;5015314;28;20305;-76
2023/11/11 06:00:22;;;;;;;2.75;0.40;;;11.00;68.70;12.80;100043.00;;;;5013152;28;20225;-76
2023/11/11 06:02:50;;;;;;;2.55;0.47;;;11.00;68.70;12.80;100045.00;;;;5016453;28;20670;-76
2023/11/11 06:05:17;;;;;;;1.50;0.77;;;11.10;68.70;12.80;100047.00;;;;5019945;28;20776;-75
2023/11/11 06:07:45;;;;;;;0.90;0.60;;;11.00;68.60;12.80;100056.00;;;;5011100;28;20196;-76
2023/11/11 06:10:13;;;;;;;1.20;0.50;;;11.00;68.50;12.80;100051.00;;;;5012619;28;20216;-75
2023/11/11 06:12:40;;;;;;;1.25;0.40;;;11.00;68.50;12.80;100054.00;;;;5009077;28;20200;-75
2023/11/11 06:15:09;;;;;;;1.20;0.43;;;11.00;68.40;12.70;100059.00;;;;5000206;28;20202;-75
2023/11/11 06:17:36;;;;;;;1.55;0.68;;;11.00;68.30;12.70;100048.00;;;;5007849;28;20189;-75
2023/11/11 06:20:05;;;;;;;2.53;0.40;;;11.00;68.30;12.70;100049.00;;;;5015851;28;20201;-76
2023/11/11 06:22:32;;;;;;;3.33;0.73;;;11.00;68.30;12.70;100060.00;;;;5012426;28;20201;-76
2023/11/11 06:25:01;;;;;;;1.40;0.40;;;11.00;69.10;12.70;100059.00;;;;5008391;28;20197;-75
2023/11/11 06:27:28;;;;;;;0.80;0.30;;;11.00;68.30;12.70;100061.00;;;;5015214;28;20212;-75
2023/11/11 06:29:55;;;;;;;0.98;0.20;;;11.00;68.30;12.70;100064.00;;;;5015419;28;20207;-75
2023/11/11 06:32:22;;;;;;;1.15;0.20;;;11.00;68.30;12.70;100080.00;;;;5009105;28;20209;-76
2023/11/11 06:34:49;;;;;;;0.98;0.30;;;11.00;68.30;12.70;100076.00;;;;5004766;28;20635;-76
2023/11/11 06:37:16;;;;;;;0.40;0.13;;;11.00;68.30;12.70;100079.00;;;;5013860;28;20821;-76
2023/11/11 06:39:43;;;;;;;0.80;0.20;;;11.00;68.30;12.80;100079.00;;;;5017086;28;20193;-76
2023/11/11 06:42:12;;;;;;;0.85;0.30;;;11.00;68.30;12.70;100085.00;;;;5014280;28;20208;-76
2023/11/11 06:44:39;;;;;;;0.70;0.17;;;11.00;68.30;12.70;100088.00;;;;5013357;28;20258;-77
2023/11/11 06:47:06;;;;;;;0.80;0.13;;;11.00;68.20;12.70;100089.00;;;;5011466;28;20217;-77
2023/11/11 06:49:33;;;;;;;0.25;0.10;;;11.00;68.90;12.70;100094.00;;;;5009471;28;20189;-77
2023/11/11 06:52:00;;;;;;;2.65;0.10;;;11.00;68.10;12.70;100093.00;;;;5011262;28;20220;-77
2023/11/11 06:54:30;;;;;;;0.30;0.10;;;11.00;68.10;12.70;100095.00;;;;5013261;28;20291;-77
2023/11/11 06:56:57;;;;;;;0.88;0.25;;;11.00;68.10;12.70;100099.00;;;;5012434;28;20201;-77
2023/11/11 06:59:25;;;;;;;0.98;0.20;;;11.00;68.00;12.60;100091.00;;;;5006151;28;20227;-77
2023/11/11 07:01:52;;;;;;;0.95;0.20;;;11.00;68.00;12.60;100104.00;;;;5009899;28;21037;-78
2023/11/11 07:04:19;;;;;;;0.43;0.20;;;11.00;68.10;12.60;100102.00;;;;5010206;28;20767;-78
2023/11/11 07:06:46;;;;;;;0.22;0.20;;;10.90;68.00;12.60;100093.00;;;;5009713;28;20199;-78
2023/11/11 07:09:13;;;;;;;0.30;0.20;;;10.90;68.10;12.60;100104.00;;;;5011737;28;20201;-77
2023/11/11 07:11:40;;;;;;;0.88;0.15;;;10.90;68.10;12.60;100102.00;;;;5010908;28;20271;-77
2023/11/11 07:14:07;;;;;;;0.80;0.20;;;10.90;68.70;12.60;100095.00;;;;5010941;28;20201;-77
2023/11/11 07:16:36;;;;;;;0.82;0.20;;;10.90;68.10;12.60;100092.00;;;;5010031;28;20671;-77
2023/11/11 07:19:04;;;;;;;0.55;0.30;;;10.90;68.10;12.60;100096.00;;;;5009950;28;20715;-78
2023/11/11 07:21:31;;;;;;;0.65;0.20;;;10.90;68.00;12.60;100104.00;;;;5010346;28;20231;-77
2023/11/11 07:23:58;;;;;;;0.77;0.10;;;10.90;68.00;12.60;100106.00;;;;5000996;28;20197;-77
2023/11/11 07:26:26;;;;;;;0.30;0.10;;;10.90;68.00;12.60;100101.00;;;;5008200;28;20204;-77
2023/11/11 07:28:53;;;;;;;0.73;0.20;;;10.90;68.10;12.60;100103.00;;;;5011681;28;20229;-77
2023/11/11 07:31:22;;;;;;;1.27;0.10;;;10.80;68.00;12.60;100100.00;;;;5011912;28;20225;-77
2023/11/11 07:33:51;;;;;;;1.75;0.10;;;10.80;68.10;12.60;100103.00;;;;5004875;28;20197;-77
2023/11/11 07:36:18;;;;;;;2.00;0.15;;;10.90;68.20;12.60;100109.00;;;;5015996;28;20201;-77
2023/11/11 07:38:46;;;;;;;0.15;0.10;;;10.80;68.20;12.60;100107.00;;;;5008771;28;20207;-78
2023/11/11 07:41:18;;;;;;;0.98;0.15;;;10.90;68.30;12.60;100108.00;;;;5009849;28;21204;-77
2023/11/11 07:43:45;;;;;;;0.40;0.30;;;10.90;68.40;12.70;100109.00;;;;5011467;28;20197;-78
2023/11/11 07:46:12;;;;;;;0.30;0.10;;;10.90;68.50;12.70;100135.00;;;;5009134;28;20229;-78
2023/11/11 07:48:41;;;;;;;1.30;0.35;;;10.90;68.40;12.70;100137.00;;;;5006929;28;20204;-79
2023/11/11 07:51:10;;;;;;;2.08;0.20;;;10.90;68.50;12.70;100137.00;;;;5005935;28;20616;-78
2023/11/11 07:53:38;;;;;;;2.78;0.20;;;10.90;69.20;12.70;100127.00;;;;5010139;28;20201;-78
2023/11/11 07:56:06;;;;;;;0.65;0.20;;;11.00;68.60;12.70;100122.00;;;;5010650;28;20201;-79
2023/11/11 07:58:34;;;;;;;0.82;0.20;;;11.00;68.60;12.70;100121.00;;;;5008530;28;20201;-78
2023/11/11 08:01:03;;;;;;;0.25;0.10;;;11.00;69.30;12.70;100139.00;;;;5010675;28;20205;-78
2023/11/11 08:03:32;;;;;;;0.45;0.10;;;11.00;68.60;12.70;100130.00;;;;5011176;28;20193;-78
2023/11/11 08:05:59;;;;;;;1.63;0.45;;;11.00;68.70;12.70;100144.00;;;;5009549;28;20197;-78
2023/11/11 08:08:29;;;;;;;2.35;0.60;;;11.00;68.60;12.70;100151.00;;;;5009972;28;20236;-78
2023/11/11 08:10:56;;;;;;;0.20;0.10;;;11.00;68.60;12.80;100159.00;;;;5009918;28;20227;-78
2023/11/11 08:13:24;;;;;;;1.75;0.35;;;11.00;68.50;12.80;100158.00;;;;5011750;28;20763;-77
2023/11/11 08:15:52;;;;;;;2.45;0.30;;;11.00;68.60;12.80;100153.00;;;;5011392;28;20204;-77
2023/11/11 08:18:19;;;;;;;1.45;0.50;;;11.00;68.60;12.90;100153.00;;;;5010448;28;20204;-77
2023/11/11 08:20:46;;;;;;;0.70;0.30;;;11.00;68.60;12.90;100154.00;;;;5010691;28;20247;-77
2023/11/11 08:23:13;;;;;;;2.67;0.30;;;11.10;68.80;13.00;100157.00;;;;5013123;28;20201;-77
2023/11/11 08:25:42;;;;;;;0.55;0.35;;;11.10;68.90;13.00;100162.00;;;;5018076;28;20204;-77
2023/11/11 08:28:09;;;;;;;1.05;0.50;;;11.10;69.10;13.10;100170.00;;;;5020098;28;20209;-77
2023/11/11 08:30:36;;;;;;;0.80;0.38;;;11.20;69.20;13.10;100181.00;;;;5012895;28;20201;-77
2023/11/11 08:33:03;;;;;;;0.28;0.10;;;11.20;69.60;13.20;100180.00;;;;5013859;28;20204;-77
2023/11/11 08:35:32;;;;;;;2.58;0.20;;;11.20;69.40;13.30;100175.00;;;;5015111;28;20208;-77
2023/11/11 08:38:00;;;;;;;0.50;0.30;;;11.30;69.70;13.40;100175.00;;;;5013355;28;20212;-78
2023/11/11 08:40:28;;;;;;;0.40;0.20;;;11.40;70.50;13.40;100179.00;;;;5014383;28;20599;-77
2023/11/11 08:42:57;;;;;;;0.40;0.22;;;11.50;69.90;13.50;100191.00;;;;5013365;28;20201;-77
2023/11/11 08:45:24;;;;;;;1.02;0.52;;;11.50;70.00;13.60;100194.00;;;;5012378;28;20205;-77
2023/11/11 08:47:51;;;;;;;1.20;0.45;;;11.60;70.10;13.70;100206.00;;;;5012753;28;20267;-77
2023/11/11 08:50:19;;;;;;;0.38;0.22;;;11.70;70.20;13.80;100210.00;;;;5013231;28;20193;-77
2023/11/11 08:52:46;;;;;;;0.40;0.20;;;11.80;70.10;13.90;100221.00;;;;5010072;28;20597;-78
2023/11/11 08:55:14;;;;;;;0.90;0.40;;;11.90;70.00;13.90;100222.00;;;;5009109;28;20197;-77
2023/11/11 08:57:41;;;;;;;1.67;0.40;;;12.00;69.80;13.90;100223.00;;;;5008153;28;20194;-78
2023/11/11 09:00:12;;;;;;;0.50;0.20;;;12.00;69.50;13.80;100219.00;;;;5008154;28;20197;-78
2023/11/11 09:02:39;;;;;;;0.57;0.30;;;12.00;69.10;13.80;100212.00;;;;5015184;28;21069;-78
2023/11/11 09:05:07;;;;;;;0.20;0.10;;;12.10;68.80;13.80;100207.00;;;;5007612;28;20744;-78
2023/11/11 09:07:35;;;;;;;1.20;0.30;;;12.10;68.60;13.80;100206.00;;;;5010174;28;20563;-78
2023/11/11 09:10:02;;;;;;;1.70;0.50;;;12.10;68.40;13.80;100208.00;;;;5010526;28;20219;-79
2023/11/11 09:12:30;;;;;;;0.63;0.50;;;12.00;68.20;13.80;100206.00;;;;5006818;28;20786;-79
2023/11/11 09:14:57;;;;;;;0.88;0.30;;;12.00;68.20;13.80;100203.00;;;;5007036;28;20288;-78
2023/11/11 09:17:25;;;;;;;0.80;0.45;;;12.00;68.30;13.80;100207.00;;;;5009793;28;20231;-78
2023/11/11 09:19:52;;;;;;;1.02;0.60;;;12.00;68.20;13.80;100207.00;;;;5005372;28;20301;-78
2023/11/11 09:22:20;;;;;;;1.83;0.60;;;12.00;68.20;13.70;100205.00;;;;5012147;28;20193;-78
2023/11/11 09:24:47;;;;;;;0.55;0.45;;;12.00;68.10;13.70;100196.00;;;;5011970;28;20211;-78
2023/11/11 09:27:14;;;;;;;0.85;0.52;;;11.90;68.00;13.70;100196.00;;;;5012292;28;20702;-77
2023/11/11 09:29:41;;;;;;;2.05;0.70;;;11.90;68.30;13.70;100192.00;;;;5006991;28;20251;-78
2023/11/11 09:32:09;;;;;;;1.80;0.60;;;11.90;68.00;13.70;100200.00;;;;5007210;28;20231;-78
2023/11/11 09:34:39;;;;;;;2.95;0.68;;;11.90;68.10;13.70;100204.00;;;;5007868;28;20205;-78
2023/11/11 09:37:07;;;;;;;2.50;0.40;;;11.90;68.00;13.70;100198.00;;;;5009400;28;20215;-79
2023/11/11 09:39:34;;;;;;;2.25;0.70;;;11.80;67.90;13.60;100200.00;;;;5008196;28;20197;-78
2023/11/11 09:42:01;;;;;;;1.33;0.52;;;11.80;67.90;13.60;100200.00;;;;5008745;28;20205;-78
2023/11/11 09:44:29;;;;;;;1.60;0.50;;;11.80;67.90;13.60;100195.00;;;;5008174;28;20213;-78
2023/11/11 09:46:58;;;;;;;2.97;0.77;;;11.80;68.00;13.60;100200.00;;;;5006237;28;21024;-79
2023/11/11 09:49:27;;;;;;;1.25;0.80;;;11.70;68.10;13.60;100210.00;;;;5009974;28;20204;-78
2023/11/11 09:51:58;;;;;;;1.98;0.70;;;11.70;68.30;13.60;100220.00;;;;5006928;28;20871;-78
2023/11/11 09:54:26;;;;;;;1.95;0.90;;;11.70;68.40;13.70;100224.00;;;;5005687;28;20201;-77
2023/11/11 09:56:56;;;;;;;3.35;1.40;;;11.70;68.60;13.70;100230.00;;;;5007250;28;20199;-77
2023/11/11 09:59:25;;;;;;;1.63;0.75;;;11.80;68.70;13.70;100222.00;;;;5000290;28;20207;-78
2023/11/11 10:01:52;;;;;;;2.95;1.13;;;11.80;68.80;13.70;100216.00;;;;5007014;28;20201;-78
2023/11/11 10:04:21;;;;;;;1.95;1.40;;;11.80;68.90;13.80;100209.00;;;;5008790;28;20197;-78
2023/11/11 10:06:52;;;;;;;3.13;1.55;;;11.80;68.90;13.80;100213.00;;;;5004846;28;20936;-78
2023/11/11 10:09:21;;;;;;;2.53;1.55;;;11.80;68.90;13.80;100217.00;;;;5007651;28;20248;-78
2023/11/11 10:11:49;;;;;;;2.08;1.40;;;11.90;68.90;13.80;100218.00;;;;5005420;28;20253;-78
2023/11/11 10:14:17;;;;;;;2.47;1.40;;;11.90;68.90;13.80;100217.00;;;;5004041;28;20729;-78
2023/11/11 10:16:44;;;;;;;1.73;1.10;;;11.90;68.80;13.90;100217.00;;;;5008832;28;20207;-78
2023/11/11 10:19:14;;;;;;;2.63;1.40;;;11.90;69.00;13.90;100226.00;;;;5006218;28;20200;-79
2023/11/11 10:21:42;;;;;;;2.00;1.23;;;12.00;69.20;13.90;100224.00;;;;5010654;28;20247;-79
2023/11/11 10:24:11;;;;;;;2.50;1.30;;;12.00;69.20;14.00;100224.00;;;;5009838;28;20205;-79
2023/11/11 10:26:40;;;;;;;2.30;1.40;;;12.10;69.40;14.00;100234.00;;;;5006507;28;20244;-78
2023/11/11 10:29:07;;;;;;;2.60;1.42;;;12.10;69.40;14.10;100227.00;;;;5008992;28;20720;-77
2023/11/11 10:31:37;;;;;;;3.92;1.42;;;12.20;69.60;14.10;100238.00;;;;5009276;28;20231;-77
2023/11/11 10:34:05;;;;;;;2.60;1.40;;;12.20;69.80;14.30;100233.00;;;;5007519;28;20682;-77
2023/11/11 10:36:41;;;;;;;1.80;1.23;;;12.30;69.90;14.30;100232.00;;;;5009155;28;20200;-76
2023/11/11 10:39:10;;;;;;;2.10;1.30;;;12.40;70.10;14.50;100233.00;;;;5008866;28;20215;-76
2023/11/11 10:41:38;;;;;;;2.72;1.20;;;12.50;70.40;14.60;100240.00;;;;5021493;28;20216;-76
2023/11/11 10:44:07;;;;;;;2.58;1.45;;;12.60;70.50;14.70;100241.00;;;;5030059;28;20200;-76
2023/11/11 10:46:36;;;;;;;2.53;1.20;;;12.70;70.70;14.90;100240.00;;;;5021725;28;20236;-76
2023/11/11 10:49:05;;;;;;;1.88;0.98;;;12.80;70.90;15.00;100234.00;;;;5006194;28;20209;-77
2023/11/11 10:51:33;;;;;;;1.35;0.95;;;13.00;70.90;15.00;100239.00;;;;5003753;28;20238;-78
2023/11/11 10:54:03;;;;;;;4.00;1.00;;;13.10;70.60;15.10;100240.00;;;;5009491;28;20658;-78